sensor_id;sensor_type;location;lat;lon;timestamp;pressure;altitude;pressure_sealevel;temperature;humidity
32933;BME280;19444;50.518;10.870;2023-07-13T00:00:00;96354.72;;;18.84;100.00
32933;BME280;19444;50.518;10.870;2023-07-13T00:02:57;96373.19;;;19.01;100.00
32933;BME280;19444;50.518;10.870;2023-07-13T00:05:59;96374.19;;;18.89;100.00
32933;BME280;19444;50.518;10.870;2023-07-13T00:08:56;96372.97;;;18.87;100.00
32933;BME280;19444;50.518;10.870;2023-07-13T00:11:56;96381.78;;;18.80;100.00
32933;BME280;19444;50.518;10.870;2023-07-13T00:14:59;96369.25;;;18.72;100.00
32933;BME280;19444;50.518;10.870;2023-07-13T00:17:56;96382.63;;;18.61;100.00
32933;BME280;19444;50.518;10.870;2023-07-13T00:20:53;96385.19;;;18.31;100.00
32933;BME280;19444;50.518;10.870;2023-07-13T00:23:50;96374.25;;;18.28;100.00
32933;BME280;19444;50.518;10.870;2023-07-13T00:26:47;96377.38;;;18.49;100.00
32933;BME280;19444;50.518;10.870;2023-07-13T00:29:44;96374.41;;;18.35;100.00
32933;BME280;19444;50.518;10.870;2023-07-13T00:32:41;96371.22;;;18.29;100.00
32933;BME280;19444;50.518;10.870;2023-07-13T00:35:38;96361.16;;;18.10;100.00
32933;BME280;19444;50.518;10.870;2023-07-13T00:38:36;96353.09;;;18.14;100.00
32933;BME280;19444;50.518;10.870;2023-07-13T00:41:33;96355.19;;;18.01;100.00
32933;BME280;19444;50.518;10.870;2023-07-13T00:44:31;96358.34;;;17.84;100.00
32933;BME280;19444;50.518;10.870;2023-07-13T00:47:28;96366.75;;;17.79;100.00
32933;BME280;19444;50.518;10.870;2023-07-13T00:50:25;96357.44;;;17.76;100.00
32933;BME280;19444;50.518;10.870;2023-07-13T00:53:22;96358.06;;;17.70;100.00
32933;BME280;19444;50.518;10.870;2023-07-13T00:56:20;96349.75;;;17.62;100.00
32933;BME280;19444;50.518;10.870;2023-07-13T00:59:18;96366.63;;;17.72;100.00
32933;BME280;19444;50.518;10.870;2023-07-13T01:02:17;96371.59;;;17.70;100.00
32933;BME280;19444;50.518;10.870;2023-07-13T01:05:18;96370.81;;;17.69;100.00
32933;BME280;19444;50.518;10.870;2023-07-13T01:08:15;96366.31;;;17.57;100.00
32933;BME280;19444;50.518;10.870;2023-07-13T01:11:19;96375.44;;;17.49;100.00
32933;BME280;19444;50.518;10.870;2023-07-13T01:14:17;96374.47;;;17.42;100.00
32933;BME280;19444;50.518;10.870;2023-07-13T01:17:15;96377.72;;;17.67;100.00
32933;BME280;19444;50.518;10.870;2023-07-13T01:20:12;96381.63;;;17.69;100.00
32933;BME280;19444;50.518;10.870;2023-07-13T01:23:11;96383.19;;;17.51;100.00
32933;BME280;19444;50.518;10.870;2023-07-13T01:26:10;96384.13;;;17.39;100.00
32933;BME280;19444;50.518;10.870;2023-07-13T01:29:08;96377.25;;;17.45;100.00
32933;BME280;19444;50.518;10.870;2023-07-13T01:32:05;96379.31;;;17.32;100.00
32933;BME280;19444;50.518;10.870;2023-07-13T01:35:05;96381.63;;;17.15;100.00
32933;BME280;19444;50.518;10.870;2023-07-13T01:38:02;96379.03;;;17.02;100.00
32933;BME280;19444;50.518;10.870;2023-07-13T01:40:59;96385.94;;;17.35;100.00
32933;BME280;19444;50.518;10.870;2023-07-13T01:43:56;96386.13;;;17.26;100.00
32933;BME280;19444;50.518;10.870;2023-07-13T01:46:53;96380.41;;;17.12;100.00
32933;BME280;19444;50.518;10.870;2023-07-13T01:49:50;96381.03;;;17.05;100.00
32933;BME280;19444;50.518;10.870;2023-07-13T01:52:48;96381.81;;;16.90;100.00
32933;BME280;19444;50.518;10.870;2023-07-13T01:55:45;96381.03;;;16.90;100.00
32933;BME280;19444;50.518;10.870;2023-07-13T01:58:42;96375.44;;;16.98;100.00
32933;BME280;19444;50.518;10.870;2023-07-13T02:01:39;96385.13;;;16.99;100.00
32933;BME280;19444;50.518;10.870;2023-07-13T02:04:36;96389.09;;;16.86;100.00
32933;BME280;19444;50.518;10.870;2023-07-13T02:07:33;96402.16;;;17.00;100.00
32933;BME280;19444;50.518;10.870;2023-07-13T02:10:30;96391.69;;;16.98;100.00
32933;BME280;19444;50.518;10.870;2023-07-13T02:13:27;96386.81;;;16.88;100.00
32933;BME280;19444;50.518;10.870;2023-07-13T02:16:24;96383.63;;;16.55;100.00
32933;BME280;19444;50.518;10.870;2023-07-13T02:19:21;96389.09;;;16.70;100.00
32933;BME280;19444;50.518;10.870;2023-07-13T02:22:18;96393.34;;;16.71;100.00
32933;BME280;19444;50.518;10.870;2023-07-13T02:25:15;96390.22;;;16.85;100.00
32933;BME280;19444;50.518;10.870;2023-07-13T02:28:12;96387.16;;;16.55;100.00
32933;BME280;19444;50.518;10.870;2023-07-13T02:31:13;96397.94;;;16.39;100.00
32933;BME280;19444;50.518;10.870;2023-07-13T02:34:10;96406.66;;;16.33;100.00
32933;BME280;19444;50.518;10.870;2023-07-13T02:37:07;96397.50;;;16.53;100.00
32933;BME280;19444;50.518;10.870;2023-07-13T02:40:05;96398.81;;;16.43;100.00
32933;BME280;19444;50.518;10.870;2023-07-13T02:43:05;96406.41;;;16.54;100.00
32933;BME280;19444;50.518;10.870;2023-07-13T02:46:02;96402.50;;;16.51;100.00
32933;BME280;19444;50.518;10.870;2023-07-13T02:49:05;96396.34;;;16.23;100.00
32933;BME280;19444;50.518;10.870;2023-07-13T02:52:02;96402.53;;;16.23;100.00
32933;BME280;19444;50.518;10.870;2023-07-13T02:54:59;96398.97;;;16.19;100.00
32933;BME280;19444;50.518;10.870;2023-07-13T02:57:56;96411.09;;;16.25;100.00
32933;BME280;19444;50.518;10.870;2023-07-13T03:00:55;96412.97;;;16.09;100.00
32933;BME280;19444;50.518;10.870;2023-07-13T03:03:52;96409.78;;;16.19;100.00
32933;BME280;19444;50.518;10.870;2023-07-13T03:06:50;96405.75;;;16.13;100.00
32933;BME280;19444;50.518;10.870;2023-07-13T03:09:46;96415.81;;;16.28;100.00
32933;BME280;19444;50.518;10.870;2023-07-13T03:12:43;96413.91;;;16.01;100.00
32933;BME280;19444;50.518;10.870;2023-07-13T03:15:40;96416.22;;;15.86;100.00
32933;BME280;19444;50.518;10.870;2023-07-13T03:18:38;96419.63;;;15.71;100.00
32933;BME280;19444;50.518;10.870;2023-07-13T03:21:35;96419.97;;;15.70;100.00
32933;BME280;19444;50.518;10.870;2023-07-13T03:24:34;96417.13;;;15.78;100.00
32933;BME280;19444;50.518;10.870;2023-07-13T03:27:35;96422.81;;;15.73;100.00
32933;BME280;19444;50.518;10.870;2023-07-13T03:30:31;96421.91;;;15.69;100.00
32933;BME280;19444;50.518;10.870;2023-07-13T03:33:28;96419.31;;;15.60;100.00
32933;BME280;19444;50.518;10.870;2023-07-13T03:36:28;96415.84;;;15.48;100.00
32933;BME280;19444;50.518;10.870;2023-07-13T03:39:26;96431.81;;;15.41;100.00
32933;BME280;19444;50.518;10.870;2023-07-13T03:42:23;96431.16;;;15.31;100.00
32933;BME280;19444;50.518;10.870;2023-07-13T03:45:20;96434.28;;;15.58;100.00
32933;BME280;19444;50.518;10.870;2023-07-13T03:48:17;96423.63;;;15.25;100.00
32933;BME280;19444;50.518;10.870;2023-07-13T03:51:16;96428.38;;;15.28;100.00
32933;BME280;19444;50.518;10.870;2023-07-13T03:54:13;96441.94;;;15.56;100.00
32933;BME280;19444;50.518;10.870;2023-07-13T03:57:10;96438.94;;;15.08;100.00
32933;BME280;19444;50.518;10.870;2023-07-13T04:00:08;96438.03;;;15.17;100.00
32933;BME280;19444;50.518;10.870;2023-07-13T04:03:05;96443.66;;;15.12;100.00
32933;BME280;19444;50.518;10.870;2023-07-13T04:06:06;96453.78;;;15.15;100.00
32933;BME280;19444;50.518;10.870;2023-07-13T04:09:04;96451.63;;;14.96;100.00
32933;BME280;19444;50.518;10.870;2023-07-13T04:12:06;96444.78;;;14.86;100.00
32933;BME280;19444;50.518;10.870;2023-07-13T04:15:03;96454.56;;;15.03;100.00
32933;BME280;19444;50.518;10.870;2023-07-13T04:18:00;96459.97;;;15.27;100.00
32933;BME280;19444;50.518;10.870;2023-07-13T04:20:57;96466.03;;;15.12;100.00
32933;BME280;19444;50.518;10.870;2023-07-13T04:23:54;96473.03;;;15.13;100.00
32933;BME280;19444;50.518;10.870;2023-07-13T04:26:51;96469.25;;;14.69;100.00
32933;BME280;19444;50.518;10.870;2023-07-13T04:29:48;96481.09;;;14.89;100.00
32933;BME280;19444;50.518;10.870;2023-07-13T04:32:45;96485.34;;;14.90;100.00
32933;BME280;19444;50.518;10.870;2023-07-13T04:35:43;96482.34;;;15.16;100.00
32933;BME280;19444;50.518;10.870;2023-07-13T04:38:40;96478.97;;;14.94;100.00
32933;BME280;19444;50.518;10.870;2023-07-13T04:41:37;96482.22;;;14.88;100.00
32933;BME280;19444;50.518;10.870;2023-07-13T04:44:34;96484.25;;;14.91;100.00
32933;BME280;19444;50.518;10.870;2023-07-13T04:47:31;96492.34;;;15.03;100.00
32933;BME280;19444;50.518;10.870;2023-07-13T04:50:29;96481.91;;;15.01;100.00
32933;BME280;19444;50.518;10.870;2023-07-13T04:53:26;96489.06;;;14.97;100.00
32933;BME280;19444;50.518;10.870;2023-07-13T04:56:23;96493.03;;;15.00;100.00
32933;BME280;19444;50.518;10.870;2023-07-13T04:59:20;96486.13;;;14.90;100.00
32933;BME280;19444;50.518;10.870;2023-07-13T05:02:19;96497.94;;;14.86;100.00
32933;BME280;19444;50.518;10.870;2023-07-13T05:05:17;96507.63;;;14.87;100.00
32933;BME280;19444;50.518;10.870;2023-07-13T05:08:14;96499.28;;;14.79;100.00
32933;BME280;19444;50.518;10.870;2023-07-13T05:11:11;96510.25;;;14.62;100.00
32933;BME280;19444;50.518;10.870;2023-07-13T05:14:08;96505.19;;;14.61;100.00
32933;BME280;19444;50.518;10.870;2023-07-13T05:17:06;96507.41;;;14.92;100.00
32933;BME280;19444;50.518;10.870;2023-07-13T05:20:03;96501.47;;;15.11;100.00
32933;BME280;19444;50.518;10.870;2023-07-13T05:23:00;96502.16;;;15.56;100.00
32933;BME280;19444;50.518;10.870;2023-07-13T05:25:57;96495.28;;;15.71;100.00
32933;BME280;19444;50.518;10.870;2023-07-13T05:28:55;96492.44;;;15.92;100.00
32933;BME280;19444;50.518;10.870;2023-07-13T05:31:52;96503.38;;;15.71;100.00
32933;BME280;19444;50.518;10.870;2023-07-13T05:34:49;96501.03;;;15.70;100.00
32933;BME280;19444;50.518;10.870;2023-07-13T05:37:46;96499.91;;;15.71;100.00
32933;BME280;19444;50.518;10.870;2023-07-13T05:40:44;96506.97;;;15.51;100.00
32933;BME280;19444;50.518;10.870;2023-07-13T05:43:41;96511.81;;;15.45;100.00
32933;BME280;19444;50.518;10.870;2023-07-13T05:46:38;96516.00;;;15.55;100.00
32933;BME280;19444;50.518;10.870;2023-07-13T05:49:35;96506.31;;;15.78;100.00
32933;BME280;19444;50.518;10.870;2023-07-13T05:52:32;96509.41;;;16.05;100.00
32933;BME280;19444;50.518;10.870;2023-07-13T05:55:30;96512.84;;;16.17;100.00
32933;BME280;19444;50.518;10.870;2023-07-13T05:58:27;96508.97;;;16.31;100.00
32933;BME280;19444;50.518;10.870;2023-07-13T06:01:24;96514.34;;;16.71;100.00
32933;BME280;19444;50.518;10.870;2023-07-13T06:04:21;96508.22;;;16.18;100.00
32933;BME280;19444;50.518;10.870;2023-07-13T06:07:18;96512.47;;;16.31;100.00
32933;BME280;19444;50.518;10.870;2023-07-13T06:10:15;96515.56;;;16.45;100.00
32933;BME280;19444;50.518;10.870;2023-07-13T06:13:12;96513.13;;;16.68;100.00
32933;BME280;19444;50.518;10.870;2023-07-13T06:16:09;96515.97;;;16.60;100.00
32933;BME280;19444;50.518;10.870;2023-07-13T06:19:06;96514.47;;;16.62;100.00
32933;BME280;19444;50.518;10.870;2023-07-13T06:22:03;96523.59;;;16.70;100.00
32933;BME280;19444;50.518;10.870;2023-07-13T06:25:00;96516.59;;;17.13;100.00
32933;BME280;19444;50.518;10.870;2023-07-13T06:27:57;96517.56;;;17.20;100.00
32933;BME280;19444;50.518;10.870;2023-07-13T06:30:54;96527.16;;;17.18;100.00
32933;BME280;19444;50.518;10.870;2023-07-13T06:33:51;96526.78;;;17.35;100.00
32933;BME280;19444;50.518;10.870;2023-07-13T06:36:48;96528.28;;;17.17;100.00
32933;BME280;19444;50.518;10.870;2023-07-13T06:39:45;96532.75;;;17.41;100.00
32933;BME280;19444;50.518;10.870;2023-07-13T06:42:42;96534.22;;;17.22;100.00
32933;BME280;19444;50.518;10.870;2023-07-13T06:45:45;96541.53;;;16.90;100.00
32933;BME280;19444;50.518;10.870;2023-07-13T06:48:43;96535.44;;;16.93;100.00
32933;BME280;19444;50.518;10.870;2023-07-13T06:51:40;96539.81;;;17.14;100.00
32933;BME280;19444;50.518;10.870;2023-07-13T06:54:37;96548.13;;;17.21;100.00
32933;BME280;19444;50.518;10.870;2023-07-13T06:57:34;96546.47;;;17.16;100.00
32933;BME280;19444;50.518;10.870;2023-07-13T07:00:31;96546.22;;;17.21;100.00
32933;BME280;19444;50.518;10.870;2023-07-13T07:03:28;96538.94;;;17.41;100.00
32933;BME280;19444;50.518;10.870;2023-07-13T07:06:25;96545.41;;;17.52;100.00
32933;BME280;19444;50.518;10.870;2023-07-13T07:09:22;96551.53;;;17.65;100.00
32933;BME280;19444;50.518;10.870;2023-07-13T07:12:19;96543.97;;;17.90;100.00
32933;BME280;19444;50.518;10.870;2023-07-13T07:15:17;96542.44;;;18.08;100.00
32933;BME280;19444;50.518;10.870;2023-07-13T07:18:15;96550.16;;;18.06;100.00
32933;BME280;19444;50.518;10.870;2023-07-13T07:21:12;96556.97;;;18.00;100.00
32933;BME280;19444;50.518;10.870;2023-07-13T07:24:10;96541.47;;;18.36;100.00
32933;BME280;19444;50.518;10.870;2023-07-13T07:27:07;96537.91;;;18.32;100.00
32933;BME280;19444;50.518;10.870;2023-07-13T07:30:07;96547.09;;;18.46;100.00
32933;BME280;19444;50.518;10.870;2023-07-13T07:33:07;96538.69;;;18.32;100.00
32933;BME280;19444;50.518;10.870;2023-07-13T07:36:04;96544.63;;;18.57;100.00
32933;BME280;19444;50.518;10.870;2023-07-13T07:39:04;96536.06;;;18.74;96.54
32933;BME280;19444;50.518;10.870;2023-07-13T07:42:01;96546.91;;;19.17;93.61
32933;BME280;19444;50.518;10.870;2023-07-13T07:44:59;96553.31;;;19.28;81.08
32933;BME280;19444;50.518;10.870;2023-07-13T07:47:57;96545.28;;;19.12;76.51
32933;BME280;19444;50.518;10.870;2023-07-13T07:50:55;96540.09;;;19.03;74.30
32933;BME280;19444;50.518;10.870;2023-07-13T07:53:53;96552.84;;;18.80;70.66
32933;BME280;19444;50.518;10.870;2023-07-13T07:56:50;96554.31;;;18.97;69.40
32933;BME280;19444;50.518;10.870;2023-07-13T07:59:50;96540.88;;;19.27;67.22
32933;BME280;19444;50.518;10.870;2023-07-13T08:02:50;96552.22;;;19.10;64.68
32933;BME280;19444;50.518;10.870;2023-07-13T08:05:53;96548.72;;;19.09;58.13
32933;BME280;19444;50.518;10.870;2023-07-13T08:08:54;96548.22;;;19.26;58.14
32933;BME280;19444;50.518;10.870;2023-07-13T08:11:51;96544.41;;;19.54;61.76
32933;BME280;19444;50.518;10.870;2023-07-13T08:14:52;96551.44;;;19.78;64.77
32933;BME280;19444;50.518;10.870;2023-07-13T08:17:54;96548.97;;;19.69;61.68
32933;BME280;19444;50.518;10.870;2023-07-13T08:20:53;96544.59;;;20.17;62.95
32933;BME280;19444;50.518;10.870;2023-07-13T08:23:53;96547.84;;;20.27;58.49
32933;BME280;19444;50.518;10.870;2023-07-13T08:26:51;96546.88;;;20.76;56.08
32933;BME280;19444;50.518;10.870;2023-07-13T08:29:49;96555.13;;;19.93;51.80
32933;BME280;19444;50.518;10.870;2023-07-13T08:32:46;96541.09;;;21.14;53.52
32933;BME280;19444;50.518;10.870;2023-07-13T08:35:49;96542.53;;;21.05;46.53
32933;BME280;19444;50.518;10.870;2023-07-13T08:38:46;96540.91;;;21.37;46.80
32933;BME280;19444;50.518;10.870;2023-07-13T08:41:47;96557.63;;;20.95;43.86
32933;BME280;19444;50.518;10.870;2023-07-13T08:45:21;96546.31;;;21.78;45.06
32933;BME280;19444;50.518;10.870;2023-07-13T08:48:33;96546.84;;;21.98;41.97
32933;BME280;19444;50.518;10.870;2023-07-13T08:51:43;96551.72;;;21.74;42.06
32933;BME280;19444;50.518;10.870;2023-07-13T08:54:49;96553.31;;;21.79;40.90
32933;BME280;19444;50.518;10.870;2023-07-13T08:58:12;96545.72;;;22.06;39.21
32933;BME280;19444;50.518;10.870;2023-07-13T09:04:36;96551.56;;;21.49;37.75
32933;BME280;19444;50.518;10.870;2023-07-13T09:10:52;96539.00;;;22.62;37.84
32933;BME280;19444;50.518;10.870;2023-07-13T09:14:35;96551.25;;;22.20;36.11
32933;BME280;19444;50.518;10.870;2023-07-13T09:17:46;96559.38;;;22.86;40.62
32933;BME280;19444;50.518;10.870;2023-07-13T09:20:50;96557.25;;;22.43;38.04
32933;BME280;19444;50.518;10.870;2023-07-13T09:23:53;96545.00;;;23.07;39.69
32933;BME280;19444;50.518;10.870;2023-07-13T09:26:52;96550.56;;;23.60;39.83
32933;BME280;19444;50.518;10.870;2023-07-13T09:30:04;96548.22;;;22.32;36.43
32933;BME280;19444;50.518;10.870;2023-07-13T09:33:08;96556.16;;;22.66;35.25
32933;BME280;19444;50.518;10.870;2023-07-13T09:36:24;96547.72;;;23.03;37.22
32933;BME280;19444;50.518;10.870;2023-07-13T09:39:35;96552.00;;;23.01;37.25
32933;BME280;19444;50.518;10.870;2023-07-13T09:42:33;96535.53;;;22.79;34.53
32933;BME280;19444;50.518;10.870;2023-07-13T09:45:33;96550.47;;;23.10;33.91
32933;BME280;19444;50.518;10.870;2023-07-13T09:48:36;96566.19;;;22.37;34.67
32933;BME280;19444;50.518;10.870;2023-07-13T09:51:33;96547.63;;;22.82;36.56
32933;BME280;19444;50.518;10.870;2023-07-13T09:54:34;96527.84;;;23.45;34.83
32933;BME280;19444;50.518;10.870;2023-07-13T09:57:32;96550.91;;;23.51;36.41
32933;BME280;19444;50.518;10.870;2023-07-13T10:01:01;96549.13;;;22.65;34.77
32933;BME280;19444;50.518;10.870;2023-07-13T10:04:11;96552.44;;;23.24;34.91
32933;BME280;19444;50.518;10.870;2023-07-13T10:07:12;96554.41;;;23.45;36.52
32933;BME280;19444;50.518;10.870;2023-07-13T10:10:25;96543.09;;;23.53;35.48
32933;BME280;19444;50.518;10.870;2023-07-13T10:13:36;96562.63;;;23.41;34.98
32933;BME280;19444;50.518;10.870;2023-07-13T10:16:34;96554.66;;;24.64;34.93
32933;BME280;19444;50.518;10.870;2023-07-13T10:19:32;96551.22;;;23.04;37.54
32933;BME280;19444;50.518;10.870;2023-07-13T10:23:04;96574.13;;;21.98;37.63
32933;BME280;19444;50.518;10.870;2023-07-13T10:26:02;96569.34;;;21.84;37.41
32933;BME280;19444;50.518;10.870;2023-07-13T10:29:06;96560.41;;;21.39;39.21
32933;BME280;19444;50.518;10.870;2023-07-13T10:32:11;96560.66;;;21.68;40.82
32933;BME280;19444;50.518;10.870;2023-07-13T10:35:15;96562.81;;;21.48;39.88
32933;BME280;19444;50.518;10.870;2023-07-13T10:38:22;96561.59;;;21.93;40.95
32933;BME280;19444;50.518;10.870;2023-07-13T10:41:22;96578.22;;;21.29;41.83
32933;BME280;19444;50.518;10.870;2023-07-13T10:44:29;96579.31;;;21.66;41.22
32933;BME280;19444;50.518;10.870;2023-07-13T10:47:27;96569.16;;;22.87;39.07
32933;BME280;19444;50.518;10.870;2023-07-13T10:50:27;96584.53;;;21.85;40.71
32933;BME280;19444;50.518;10.870;2023-07-13T10:53:30;96565.53;;;21.96;42.45
32933;BME280;19444;50.518;10.870;2023-07-13T10:56:29;96569.25;;;21.70;42.19
32933;BME280;19444;50.518;10.870;2023-07-13T10:59:29;96563.31;;;22.12;41.20
32933;BME280;19444;50.518;10.870;2023-07-13T11:02:28;96554.78;;;23.40;40.47
32933;BME280;19444;50.518;10.870;2023-07-13T11:05:31;96575.88;;;23.18;38.53
32933;BME280;19444;50.518;10.870;2023-07-13T11:08:38;96559.50;;;23.53;37.60
32933;BME280;19444;50.518;10.870;2023-07-13T11:11:48;96563.38;;;23.38;39.38
32933;BME280;19444;50.518;10.870;2023-07-13T11:17:54;96571.81;;;22.69;38.85
32933;BME280;19444;50.518;10.870;2023-07-13T11:21:25;96562.47;;;22.81;38.11
32933;BME280;19444;50.518;10.870;2023-07-13T11:31:15;96552.81;;;22.14;39.96
32933;BME280;19444;50.518;10.870;2023-07-13T11:34:16;96544.53;;;24.47;36.76
32933;BME280;19444;50.518;10.870;2023-07-13T11:37:16;96542.31;;;23.74;36.54
32933;BME280;19444;50.518;10.870;2023-07-13T11:40:15;96564.94;;;24.21;37.41
32933;BME280;19444;50.518;10.870;2023-07-13T11:43:16;96548.19;;;23.91;35.16
32933;BME280;19444;50.518;10.870;2023-07-13T11:46:26;96535.22;;;24.20;36.56
32933;BME280;19444;50.518;10.870;2023-07-13T11:49:26;96529.44;;;27.04;33.50
32933;BME280;19444;50.518;10.870;2023-07-13T11:52:29;96535.47;;;26.24;32.64
32933;BME280;19444;50.518;10.870;2023-07-13T11:55:26;96542.03;;;25.47;34.88
32933;BME280;19444;50.518;10.870;2023-07-13T11:58:30;96543.75;;;24.54;37.24
32933;BME280;19444;50.518;10.870;2023-07-13T12:01:31;96539.88;;;25.21;35.27
32933;BME280;19444;50.518;10.870;2023-07-13T12:04:34;96545.03;;;25.67;34.51
32933;BME280;19444;50.518;10.870;2023-07-13T12:07:35;96554.78;;;24.32;36.95
32933;BME280;19444;50.518;10.870;2023-07-13T12:10:34;96540.75;;;23.66;35.56
32933;BME280;19444;50.518;10.870;2023-07-13T12:13:37;96546.72;;;24.88;34.44
32933;BME280;19444;50.518;10.870;2023-07-13T12:16:37;96547.16;;;25.42;34.72
32933;BME280;19444;50.518;10.870;2023-07-13T12:19:34;96564.53;;;23.09;36.41
32933;BME280;19444;50.518;10.870;2023-07-13T12:22:31;96564.16;;;23.21;38.01
32933;BME280;19444;50.518;10.870;2023-07-13T12:25:31;96558.94;;;22.84;38.11
32933;BME280;19444;50.518;10.870;2023-07-13T12:28:49;96554.09;;;22.38;38.34
32933;BME280;19444;50.518;10.870;2023-07-13T12:31:50;96559.16;;;23.80;35.75
32933;BME280;19444;50.518;10.870;2023-07-13T12:34:56;96544.66;;;23.94;37.46
32933;BME280;19444;50.518;10.870;2023-07-13T12:37:53;96565.75;;;24.15;35.29
32933;BME280;19444;50.518;10.870;2023-07-13T12:40:51;96575.41;;;24.58;36.20
32933;BME280;19444;50.518;10.870;2023-07-13T12:43:49;96557.28;;;26.76;35.61
32933;BME280;19444;50.518;10.870;2023-07-13T12:47:02;96564.50;;;24.40;35.32
32933;BME280;19444;50.518;10.870;2023-07-13T12:50:04;96564.38;;;22.69;39.21
32933;BME280;19444;50.518;10.870;2023-07-13T12:53:05;96571.25;;;22.35;38.85
32933;BME280;19444;50.518;10.870;2023-07-13T12:56:11;96574.56;;;22.83;37.88
32933;BME280;19444;50.518;10.870;2023-07-13T12:59:19;96571.25;;;23.61;39.77
32933;BME280;19444;50.518;10.870;2023-07-13T13:02:35;96550.66;;;27.31;36.05
32933;BME280;19444;50.518;10.870;2023-07-13T13:05:33;96552.59;;;26.01;35.17
32933;BME280;19444;50.518;10.870;2023-07-13T13:08:33;96554.44;;;23.84;37.30
32933;BME280;19444;50.518;10.870;2023-07-13T13:11:31;96565.34;;;23.38;36.10
32933;BME280;19444;50.518;10.870;2023-07-13T13:14:28;96561.91;;;22.39;38.33
32933;BME280;19444;50.518;10.870;2023-07-13T13:17:29;96573.63;;;22.43;38.16
32933;BME280;19444;50.518;10.870;2023-07-13T13:20:28;96579.38;;;23.11;38.58
32933;BME280;19444;50.518;10.870;2023-07-13T13:23:25;96576.19;;;22.88;39.64
32933;BME280;19444;50.518;10.870;2023-07-13T13:26:22;96576.91;;;22.81;38.74
32933;BME280;19444;50.518;10.870;2023-07-13T13:29:23;96575.41;;;22.91;37.48
32933;BME280;19444;50.518;10.870;2023-07-13T13:32:23;96579.72;;;22.16;39.35
32933;BME280;19444;50.518;10.870;2023-07-13T13:35:20;96577.03;;;22.23;40.27
32933;BME280;19444;50.518;10.870;2023-07-13T13:38:23;96580.06;;;22.10;39.85
32933;BME280;19444;50.518;10.870;2023-07-13T13:41:21;96579.88;;;22.44;39.26
32933;BME280;19444;50.518;10.870;2023-07-13T13:44:19;96574.22;;;24.70;35.38
32933;BME280;19444;50.518;10.870;2023-07-13T13:47:31;96559.28;;;25.51;35.88
32933;BME280;19444;50.518;10.870;2023-07-13T13:50:29;96565.41;;;25.70;33.92
32933;BME280;19444;50.518;10.870;2023-07-13T13:53:26;96578.63;;;24.35;36.29
32933;BME280;19444;50.518;10.870;2023-07-13T13:56:24;96565.44;;;26.52;33.37
32933;BME280;19444;50.518;10.870;2023-07-13T13:59:22;96562.78;;;27.10;32.65
32933;BME280;19444;50.518;10.870;2023-07-13T14:02:28;96565.81;;;26.13;32.59
32933;BME280;19444;50.518;10.870;2023-07-13T14:05:27;96572.00;;;24.33;37.39
32933;BME280;19444;50.518;10.870;2023-07-13T14:08:25;96574.38;;;23.92;36.50
32933;BME280;19444;50.518;10.870;2023-07-13T14:11:22;96567.34;;;23.73;37.67
32933;BME280;19444;50.518;10.870;2023-07-13T14:14:22;96570.56;;;24.94;36.46
32933;BME280;19444;50.518;10.870;2023-07-13T14:17:25;96573.56;;;23.52;37.00
32933;BME280;19444;50.518;10.870;2023-07-13T14:20:25;96578.00;;;22.66;37.35
32933;BME280;19444;50.518;10.870;2023-07-13T14:23:22;96592.88;;;22.68;37.98
32933;BME280;19444;50.518;10.870;2023-07-13T14:26:23;96571.19;;;23.25;40.00
32933;BME280;19444;50.518;10.870;2023-07-13T14:29:21;96578.28;;;23.94;37.24
32933;BME280;19444;50.518;10.870;2023-07-13T14:32:20;96567.25;;;24.40;36.11
32933;BME280;19444;50.518;10.870;2023-07-13T14:35:21;96581.13;;;22.61;38.13
32933;BME280;19444;50.518;10.870;2023-07-13T14:38:20;96584.72;;;22.79;37.93
32933;BME280;19444;50.518;10.870;2023-07-13T14:41:17;96585.38;;;22.55;38.64
32933;BME280;19444;50.518;10.870;2023-07-13T14:44:17;96594.78;;;21.99;39.05
32933;BME280;19444;50.518;10.870;2023-07-13T14:47:14;96589.56;;;22.34;37.97
32933;BME280;19444;50.518;10.870;2023-07-13T14:50:32;96593.38;;;21.68;39.61
32933;BME280;19444;50.518;10.870;2023-07-13T14:53:29;96594.72;;;21.44;41.28
32933;BME280;19444;50.518;10.870;2023-07-13T14:56:26;96582.66;;;21.45;40.42
32933;BME280;19444;50.518;10.870;2023-07-13T14:59:23;96588.19;;;22.76;38.25
32933;BME280;19444;50.518;10.870;2023-07-13T15:02:34;96567.59;;;24.57;35.74
32933;BME280;19444;50.518;10.870;2023-07-13T15:05:34;96560.38;;;24.99;34.30
32933;BME280;19444;50.518;10.870;2023-07-13T15:08:31;96574.75;;;23.76;36.29
32933;BME280;19444;50.518;10.870;2023-07-13T15:11:28;96570.63;;;24.84;33.84
32933;BME280;19444;50.518;10.870;2023-07-13T15:14:26;96569.06;;;26.42;33.00
32933;BME280;19444;50.518;10.870;2023-07-13T15:17:46;96579.28;;;24.79;34.85
32933;BME280;19444;50.518;10.870;2023-07-13T15:20:47;96582.09;;;24.50;36.19
32933;BME280;19444;50.518;10.870;2023-07-13T15:23:44;96589.53;;;23.21;35.83
32933;BME280;19444;50.518;10.870;2023-07-13T15:26:43;96581.19;;;22.82;38.47
32933;BME280;19444;50.518;10.870;2023-07-13T15:29:45;96587.63;;;22.38;39.11
32933;BME280;19444;50.518;10.870;2023-07-13T15:32:44;96579.41;;;23.33;39.19
32933;BME280;19444;50.518;10.870;2023-07-13T15:35:41;96583.25;;;22.20;40.34
32933;BME280;19444;50.518;10.870;2023-07-13T15:38:39;96578.25;;;24.08;39.53
32933;BME280;19444;50.518;10.870;2023-07-13T15:41:37;96576.72;;;23.97;37.51
32933;BME280;19444;50.518;10.870;2023-07-13T15:44:36;96590.84;;;22.58;38.17
32933;BME280;19444;50.518;10.870;2023-07-13T15:47:33;96587.06;;;22.77;38.14
32933;BME280;19444;50.518;10.870;2023-07-13T15:50:45;96575.81;;;22.13;39.45